createdAt,value
2022-09-07T00:02:20.557Z,101326.28
2022-09-07T00:04:47.063Z,101322.09
2022-09-07T00:07:13.623Z,101332.72
2022-09-07T00:09:40.093Z,101326.91
2022-09-07T00:12:06.617Z,101324.56
2022-09-07T00:14:34.308Z,101322.56
2022-09-07T00:17:00.791Z,101324.44
2022-09-07T00:19:27.308Z,101329.38
2022-09-07T00:21:53.805Z,101337.47
2022-09-07T00:24:20.279Z,101334.97
2022-09-07T00:26:46.783Z,101326.16
2022-09-07T00:29:13.273Z,101329.88
2022-09-07T00:31:39.890Z,101331.41
2022-09-07T00:34:06.607Z,101330.56
2022-09-07T00:36:33.164Z,101330.63
2022-09-07T00:38:59.801Z,101326.06
2022-09-07T00:41:26.605Z,101328.75
2022-09-07T00:43:56.083Z,101325.41
2022-09-07T00:46:27.219Z,101322.81
2022-09-07T00:49:13.979Z,101312.44
2022-09-07T00:51:53.524Z,101305.31
2022-09-07T00:54:24.649Z,101304.50
2022-09-07T00:56:52.924Z,101315.66
2022-09-07T00:59:24.190Z,101317.38
2022-09-07T01:01:51.041Z,101309.44
2022-09-07T01:04:18.072Z,101306.84
2022-09-07T01:06:44.803Z,101303.47
2022-09-07T01:09:14.004Z,101299.91
2022-09-07T01:11:40.705Z,101299.88
2022-09-07T01:14:09.521Z,101290.06
2022-09-07T01:16:47.757Z,101284.03
2022-09-07T01:19:26.387Z,101284.16
2022-09-07T01:22:20.676Z,101279.00
2022-09-07T01:24:55.717Z,101263.09
2022-09-07T01:27:41.008Z,101272.75
2022-09-07T01:30:10.261Z,101267.38
2022-09-07T01:32:56.797Z,101253.53
2022-09-07T01:35:37.868Z,101257.91
2022-09-07T01:38:35.433Z,101264.66
2022-09-07T01:41:25.430Z,101276.34
2022-09-07T01:44:05.969Z,101282.47
2022-09-07T01:46:41.470Z,101278.97
2022-09-07T01:49:21.252Z,101288.50
2022-09-07T01:51:51.717Z,101292.06
2022-09-07T01:54:30.361Z,101291.13
2022-09-07T01:57:03.604Z,101285.75
2022-09-07T01:59:33.382Z,101288.38
2022-09-07T02:02:07.736Z,101284.38
2022-09-07T02:04:48.660Z,101286.06
2022-09-07T02:07:22.147Z,101280.47
2022-09-07T02:09:55.768Z,101282.34
2022-09-07T02:12:27.188Z,101287.72
2022-09-07T02:14:59.477Z,101283.41
2022-09-07T02:17:33.814Z,101280.59
2022-09-07T02:20:08.130Z,101273.72
2022-09-07T02:22:39.258Z,101268.63
2022-09-07T02:25:07.562Z,101267.56
2022-09-07T02:27:45.953Z,101264.06
2022-09-07T02:30:13.068Z,101253.56
2022-09-07T02:32:39.628Z,101250.88
2022-09-07T02:35:06.695Z,101244.06
2022-09-07T02:37:34.249Z,101240.47
2022-09-07T02:40:00.947Z,101231.56
2022-09-07T02:42:33.219Z,101230.72
2022-09-07T02:45:00.892Z,101220.31
2022-09-07T02:47:33.972Z,101218.47
2022-09-07T02:50:28.475Z,101217.59
2022-09-07T02:53:10.217Z,101207.72
2022-09-07T02:55:55.345Z,101213.03
2022-09-07T02:58:42.057Z,101206.03
2022-09-07T03:01:17.078Z,101214.00
2022-09-07T03:03:55.637Z,101206.16
2022-09-07T03:06:26.981Z,101199.59
2022-09-07T03:08:54.805Z,101211.31
2022-09-07T03:11:21.418Z,101206.59
2022-09-07T03:13:48.051Z,101204.97
2022-09-07T03:16:15.130Z,101210.31
2022-09-07T03:18:44.326Z,101220.84
2022-09-07T03:21:10.940Z,101213.13
2022-09-07T03:23:40.464Z,101219.13
2022-09-07T03:26:07.005Z,101210.38
2022-09-07T03:28:33.512Z,101217.38
2022-09-07T03:31:00.965Z,101220.00
2022-09-07T03:33:27.598Z,101225.41
2022-09-07T03:35:59.781Z,101223.41
2022-09-07T03:38:26.288Z,101226.31
2022-09-07T03:41:01.012Z,101230.78
2022-09-07T03:43:28.581Z,101219.06
2022-09-07T03:46:03.748Z,101210.50
2022-09-07T03:48:32.260Z,101208.75
2022-09-07T03:51:00.410Z,101203.72
2022-09-07T03:53:27.266Z,101196.69
2022-09-07T03:56:00.895Z,101179.09
2022-09-07T03:58:29.488Z,101176.41
2022-09-07T04:00:56.345Z,101183.56
2022-09-07T04:03:22.897Z,101175.47
2022-09-07T04:05:49.643Z,101172.91
2022-09-07T04:08:16.164Z,101173.09
2022-09-07T04:10:42.997Z,101175.41
2022-09-07T04:13:09.685Z,101170.22
2022-09-07T04:15:36.264Z,101163.50
2022-09-07T04:18:02.765Z,101155.34
2022-09-07T04:20:29.884Z,101157.19
2022-09-07T04:22:56.547Z,101156.19
2022-09-07T04:25:23.313Z,101161.44
2022-09-07T04:27:49.801Z,101154.47
2022-09-07T04:30:16.366Z,101156.13
2022-09-07T04:32:42.853Z,101144.81
2022-09-07T04:35:10.048Z,101150.00
2022-09-07T04:37:36.493Z,101141.84
2022-09-07T04:40:03.254Z,101145.50
2022-09-07T04:42:29.994Z,101141.16
2022-09-07T04:44:57.046Z,101148.28
2022-09-07T04:47:23.656Z,101145.56
2022-09-07T04:49:51.811Z,101155.13
2022-09-07T04:52:18.816Z,101151.63
2022-09-07T04:54:49.653Z,101143.94
2022-09-07T04:57:16.703Z,101141.13
2022-09-07T04:59:43.218Z,101141.31
2022-09-07T05:02:09.746Z,101147.34
2022-09-07T05:04:36.548Z,101144.00
2022-09-07T05:07:03.033Z,101139.66
2022-09-07T05:09:30.664Z,101144.66
2022-09-07T05:11:57.194Z,101143.00
2022-09-07T05:14:23.730Z,101153.34
2022-09-07T05:16:50.287Z,101150.78
2022-09-07T05:19:16.863Z,101155.25
2022-09-07T05:21:43.389Z,101150.91
2022-09-07T05:24:09.910Z,101174.41
2022-09-07T05:26:37.147Z,101168.28
2022-09-07T05:31:52.175Z,101195.44
2022-09-07T05:34:33.970Z,101199.94
2022-09-07T05:37:01.244Z,101209.59
2022-09-07T05:39:29.940Z,101216.41
2022-09-07T05:41:56.825Z,101216.34
2022-09-07T05:47:10.096Z,101240.09
2022-09-07T05:49:36.669Z,101236.44
2022-09-07T05:52:03.428Z,101232.75
2022-09-07T05:54:29.915Z,101205.63
2022-09-07T05:56:56.382Z,101197.72
2022-09-07T05:59:22.874Z,101207.41
2022-09-07T06:01:49.463Z,101219.69
2022-09-07T06:04:16.149Z,101231.03
2022-09-07T06:09:12.602Z,101230.03
2022-09-07T06:11:39.090Z,101237.94
2022-09-07T06:14:05.573Z,101222.97
2022-09-07T06:16:33.860Z,101220.41
2022-09-07T06:19:07.565Z,101220.44
2022-09-07T06:21:38.446Z,101226.25
2022-09-07T06:24:06.211Z,101209.53
2022-09-07T06:26:32.964Z,101210.38
2022-09-07T06:28:59.553Z,101205.09
2022-09-07T06:31:26.075Z,101207.78
2022-09-07T06:33:54.458Z,101197.72
2022-09-07T06:36:22.995Z,101189.53
2022-09-07T06:38:50.465Z,101186.97
2022-09-07T06:44:07.398Z,101182.00
2022-09-07T06:49:20.374Z,101183.47
2022-09-07T06:51:46.953Z,101186.75
2022-09-07T06:57:00.036Z,101201.00
2022-09-07T06:59:26.516Z,101202.63
2022-09-07T07:01:52.981Z,101200.72
2022-09-07T07:04:19.514Z,101201.03
2022-09-07T07:06:46.012Z,101200.72
2022-09-07T07:09:13.981Z,101197.50
2022-09-07T07:11:40.564Z,101193.66
2022-09-07T07:14:07.109Z,101194.56
2022-09-07T07:16:33.632Z,101189.31
2022-09-07T07:19:00.303Z,101200.63
2022-09-07T07:21:28.964Z,101191.47
2022-09-07T07:24:04.996Z,101199.09
2022-09-07T07:26:34.713Z,101194.34
2022-09-07T07:29:02.792Z,101190.41
2022-09-07T07:31:30.280Z,101183.00
2022-09-07T07:33:56.947Z,101181.41
2022-09-07T07:36:25.561Z,101174.34
2022-09-07T07:39:01.897Z,101169.91
2022-09-07T07:44:18.156Z,101168.78
2022-09-07T07:46:48.079Z,101167.31
2022-09-07T07:49:14.716Z,101169.16
2022-09-07T07:54:27.625Z,101172.75
2022-09-07T07:56:54.056Z,101174.66
2022-09-07T07:59:20.545Z,101177.06
2022-09-07T08:01:47.074Z,101173.28
2022-09-07T08:04:13.648Z,101174.66
2022-09-07T08:06:42.593Z,101172.31
2022-09-07T08:09:09.076Z,101174.94
2022-09-07T08:11:35.522Z,101177.94
2022-09-07T08:14:03.332Z,101176.81
2022-09-07T08:16:29.801Z,101176.31
2022-09-07T08:18:57.556Z,101181.59
2022-09-07T08:21:24.034Z,101191.44
2022-09-07T08:23:50.500Z,101197.53
2022-09-07T08:26:17.057Z,101196.16
2022-09-07T08:28:46.748Z,101190.22
2022-09-07T08:31:15.290Z,101180.22
2022-09-07T08:33:42.089Z,101181.56
2022-09-07T08:36:13.360Z,101183.06
2022-09-07T08:38:39.893Z,101164.84
2022-09-07T08:41:34.407Z,101170.56
2022-09-07T08:44:03.860Z,101164.28
2022-09-07T08:46:40.213Z,101153.25
2022-09-07T08:49:17.056Z,101148.25
2022-09-07T08:51:51.034Z,101139.38
2022-09-07T08:54:18.077Z,101137.44
2022-09-07T08:59:40.908Z,101133.47
2022-09-07T09:02:27.602Z,101136.28
2022-09-07T09:07:49.401Z,101137.38
2022-09-07T09:10:33.512Z,101149.84
2022-09-07T09:13:15.015Z,101159.53
2022-09-07T09:15:53.591Z,101163.09
2022-09-07T09:18:46.567Z,101173.19
2022-09-07T09:21:18.758Z,101172.25
2022-09-07T09:23:48.377Z,101179.75
2022-09-07T09:26:31.445Z,101178.88
2022-09-07T09:28:58.056Z,101173.66
2022-09-07T09:31:28.989Z,101175.66
2022-09-07T09:34:13.855Z,101169.72
2022-09-07T09:36:43.393Z,101175.53
2022-09-07T09:39:36.584Z,101182.75
2022-09-07T09:42:16.273Z,101168.00
2022-09-07T09:44:43.546Z,101160.63
2022-09-07T09:47:33.061Z,101160.63
2022-09-07T09:52:28.545Z,101157.66
2022-09-07T09:53:02.476Z,101153.75
2022-09-07T09:55:36.073Z,101156.72
2022-09-07T10:01:22.145Z,101153.84
2022-09-07T10:03:58.443Z,101164.19
2022-09-07T10:06:27.858Z,101150.66
2022-09-07T10:09:01.911Z,101147.25
2022-09-07T10:14:34.296Z,101149.81
2022-09-07T10:17:02.153Z,101144.38
2022-09-07T10:19:28.733Z,101132.81
2022-09-07T10:21:57.356Z,101118.31
2022-09-07T10:24:28.709Z,101134.53
2022-09-07T10:26:55.205Z,101118.63
2022-09-07T10:29:36.124Z,101111.13
2022-09-07T10:32:05.790Z,101104.97
2022-09-07T10:34:38.222Z,101108.56
2022-09-07T10:37:11.026Z,101111.66
2022-09-07T10:40:00.155Z,101112.94
2022-09-07T10:42:33.760Z,101116.81
2022-09-07T10:45:11.460Z,101135.41
2022-09-07T10:48:19.504Z,101143.22
2022-09-07T10:50:51.450Z,101140.97
2022-09-07T10:56:49.297Z,101148.28
2022-09-07T11:06:16.205Z,101156.50
2022-09-07T11:12:04.194Z,101146.50
2022-09-07T11:14:58.508Z,101145.06
2022-09-07T11:17:27.136Z,101145.00
2022-09-07T11:20:22.396Z,101133.97
2022-09-07T11:22:54.070Z,101138.16
2022-09-07T11:25:32.274Z,101133.09
2022-09-07T11:28:02.894Z,101133.66
2022-09-07T11:30:36.477Z,101134.00
2022-09-07T11:33:21.740Z,101126.97
2022-09-07T11:35:48.161Z,101116.91
2022-09-07T11:38:35.596Z,101118.53
2022-09-07T11:41:13.794Z,101120.22
2022-09-07T11:43:46.534Z,101118.19
2022-09-07T11:46:16.164Z,101112.53
2022-09-07T11:48:49.252Z,101110.66
2022-09-07T11:51:34.485Z,101106.38
2022-09-07T11:54:08.661Z,101103.34
2022-09-07T11:56:39.777Z,101108.81
2022-09-07T11:59:12.266Z,101106.72
2022-09-07T12:01:54.364Z,101101.53
2022-09-07T12:04:56.132Z,101091.88
2022-09-07T12:10:08.854Z,101083.47
2022-09-07T12:12:38.309Z,101084.22
2022-09-07T12:15:10.945Z,101076.53
2022-09-07T12:17:55.615Z,101069.59
2022-09-07T12:20:26.793Z,101068.03
2022-09-07T12:23:05.373Z,101064.81
2022-09-07T12:25:33.983Z,101062.91
2022-09-07T12:28:00.936Z,101069.56
2022-09-07T12:30:28.186Z,101064.13
2022-09-07T12:33:06.057Z,101063.13
2022-09-07T12:35:40.277Z,101060.13
2022-09-07T12:38:18.955Z,101058.47
2022-09-07T12:40:54.598Z,101057.25
2022-09-07T12:43:21.006Z,101062.31
2022-09-07T12:45:50.692Z,101060.72
2022-09-07T12:48:17.151Z,101056.41
2022-09-07T12:51:02.007Z,101058.44
2022-09-07T12:53:39.468Z,101060.53
2022-09-07T12:56:21.396Z,101063.22
2022-09-07T12:58:56.991Z,101056.66
2022-09-07T13:01:35.793Z,101054.56
2022-09-07T13:04:34.434Z,101036.22
2022-09-07T13:07:08.297Z,101043.22
2022-09-07T13:09:36.510Z,101043.19
2022-09-07T13:12:55.290Z,101036.81
2022-09-07T13:15:32.302Z,101041.28
2022-09-07T13:17:59.005Z,101035.63
2022-09-07T13:20:30.383Z,101034.25
2022-09-07T13:23:08.370Z,101023.84
2022-09-07T13:25:37.905Z,101024.09
2022-09-07T13:28:15.811Z,101019.94
2022-09-07T13:30:53.470Z,101028.00
2022-09-07T13:33:29.438Z,101024.16
2022-09-07T13:36:00.290Z,101023.47
2022-09-07T13:38:28.032Z,101022.59
2022-09-07T13:41:00.494Z,101023.81
2022-09-07T13:43:27.020Z,101020.69
2022-09-07T13:45:53.591Z,101021.78
2022-09-07T13:48:35.605Z,101015.03
2022-09-07T13:51:10.495Z,101018.78
2022-09-07T13:53:45.735Z,101018.72
2022-09-07T13:56:16.729Z,101022.63
2022-09-07T13:58:47.005Z,101022.53
2022-09-07T14:01:13.487Z,101020.06
2022-09-07T14:03:49.252Z,101022.38
2022-09-07T14:06:27.778Z,101021.16
2022-09-07T14:08:57.090Z,101018.63
2022-09-07T14:11:43.831Z,101027.84
2022-09-07T14:14:13.835Z,101025.69
2022-09-07T14:16:42.253Z,101023.22
2022-09-07T14:19:10.868Z,101025.41
2022-09-07T14:21:37.686Z,101023.53
2022-09-07T14:24:19.444Z,101023.34
2022-09-07T14:26:48.031Z,101004.53
2022-09-07T14:29:32.233Z,101009.13
2022-09-07T14:32:00.957Z,101003.59
2022-09-07T14:34:34.071Z,101001.09
2022-09-07T14:37:04.346Z,101011.03
2022-09-07T14:39:35.817Z,101017.03
2022-09-07T14:42:03.818Z,101015.50
2022-09-07T14:44:39.022Z,101014.81
2022-09-07T14:47:29.697Z,101005.38
2022-09-07T14:49:58.244Z,101009.44
2022-09-07T14:52:35.760Z,101012.34
2022-09-07T14:55:07.970Z,101008.66
2022-09-07T14:57:34.425Z,101002.19
2022-09-07T15:00:26.794Z,100999.06
2022-09-07T15:02:53.322Z,100993.97
2022-09-07T15:05:28.060Z,100999.44
2022-09-07T15:08:02.729Z,101000.47
2022-09-07T15:10:32.226Z,101001.00
2022-09-07T15:13:00.012Z,100997.56
2022-09-07T15:15:29.491Z,100998.78
2022-09-07T15:18:03.229Z,100993.22
2022-09-07T15:20:43.998Z,100997.69
2022-09-07T15:23:12.598Z,100992.53
2022-09-07T15:25:40.703Z,100992.28
2022-09-07T15:28:15.272Z,100980.66
2022-09-07T15:33:48.173Z,100990.88
2022-09-07T15:36:16.544Z,100994.41
2022-09-07T15:41:29.621Z,100983.91
2022-09-07T15:43:56.837Z,100982.50
2022-09-07T15:46:25.060Z,100984.38
2022-09-07T15:48:55.717Z,100986.66
2022-09-07T15:54:13.969Z,100983.31
2022-09-07T15:56:42.688Z,100973.25
2022-09-07T15:59:10.343Z,100985.28
2022-09-07T16:01:54.708Z,100981.34
2022-09-07T16:04:24.051Z,100984.38
2022-09-07T16:06:50.843Z,100990.34
2022-09-07T16:09:17.449Z,100985.53
2022-09-07T16:11:44.384Z,100980.28
2022-09-07T16:14:12.405Z,100982.94
2022-09-07T16:19:25.290Z,100982.25
2022-09-07T16:21:51.739Z,100995.38
2022-09-07T16:24:18.386Z,100983.59
2022-09-07T16:26:44.962Z,100973.31
2022-09-07T16:29:11.470Z,100977.84
2022-09-07T16:31:38.159Z,100983.31
2022-09-07T16:34:04.892Z,100973.69
2022-09-07T16:36:31.374Z,100973.53
2022-09-07T16:38:59.855Z,100968.75
2022-09-07T16:41:29.343Z,100969.31
2022-09-07T16:43:56.024Z,100967.63
2022-09-07T16:46:25.266Z,100964.75
2022-09-07T16:48:52.587Z,100959.25
2022-09-07T16:51:21.347Z,100958.75
2022-09-07T16:53:49.398Z,100958.50
2022-09-07T16:56:18.204Z,100960.75
2022-09-07T16:58:46.765Z,100958.53
2022-09-07T17:01:15.943Z,100956.94
2022-09-07T17:03:43.142Z,100956.75
2022-09-07T17:06:11.592Z,100955.44
2022-09-07T17:08:38.698Z,100959.41
2022-09-07T17:11:09.183Z,100957.66
2022-09-07T17:13:37.306Z,100967.19
2022-09-07T17:16:05.411Z,100966.25
2022-09-07T17:21:19.866Z,100968.56
2022-09-07T17:23:54.377Z,100974.31
2022-09-07T17:26:23.252Z,100972.81
2022-09-07T17:28:50.873Z,100979.69
2022-09-07T17:34:11.416Z,100984.19
2022-09-07T17:36:37.891Z,100986.72
2022-09-07T17:39:20.114Z,100979.84
2022-09-07T17:41:48.237Z,100979.78
2022-09-07T17:44:15.117Z,100978.44
2022-09-07T17:46:41.609Z,100981.19
2022-09-07T17:49:16.456Z,100973.66
2022-09-07T17:51:44.235Z,100981.69
2022-09-07T17:54:14.193Z,100986.50
2022-09-07T17:56:41.650Z,100985.47
2022-09-07T18:01:55.614Z,100978.53
2022-09-07T18:04:22.302Z,100983.06
2022-09-07T18:06:48.984Z,100989.81
2022-09-07T18:09:15.784Z,100982.50
2022-09-07T18:11:46.751Z,100987.00
2022-09-07T18:14:14.669Z,100989.47
2022-09-07T18:16:42.500Z,100991.44
2022-09-07T18:19:10.947Z,101002.56
2022-09-07T18:21:37.939Z,100995.41
2022-09-07T18:24:07.487Z,100996.53
2022-09-07T18:26:39.091Z,100999.72
2022-09-07T18:29:13.249Z,100998.13
2022-09-07T18:31:53.867Z,101009.81
2022-09-07T18:34:20.842Z,101012.97
2022-09-07T18:36:47.395Z,101009.88
2022-09-07T18:39:14.103Z,101008.50
2022-09-07T18:41:40.842Z,101008.88
2022-09-07T18:45:27.292Z,101010.25
2022-09-07T18:46:54.468Z,101009.44
2022-09-07T18:49:20.944Z,101012.31
2022-09-07T18:54:33.844Z,101013.66
2022-09-07T18:57:00.424Z,101006.34
2022-09-07T18:59:26.915Z,101011.94
2022-09-07T19:01:54.127Z,101008.41
2022-09-07T19:04:21.427Z,101007.47
2022-09-07T19:06:48.109Z,101007.06
2022-09-07T19:09:14.694Z,101007.25
2022-09-07T19:11:42.132Z,101000.69
2022-09-07T19:14:08.911Z,101004.19
2022-09-07T19:16:35.532Z,101001.69
2022-09-07T19:19:04.448Z,101013.94
2022-09-07T19:21:35.747Z,101019.66
2022-09-07T19:24:07.647Z,101025.47
2022-09-07T19:26:36.879Z,101023.19
2022-09-07T19:29:04.631Z,101019.38
2022-09-07T19:31:31.427Z,101017.56
2022-09-07T19:33:59.907Z,101021.03
2022-09-07T19:36:27.652Z,101025.88
2022-09-07T19:38:54.126Z,101015.00
2022-09-07T19:41:21.072Z,101021.19
2022-09-07T19:43:48.400Z,101022.91
2022-09-07T19:46:16.461Z,101022.34
2022-09-07T19:48:44.556Z,101031.06
2022-09-07T19:51:12.995Z,101029.47
2022-09-07T19:53:42.946Z,101031.06
2022-09-07T19:56:12.814Z,101023.34
2022-09-07T19:58:41.809Z,101037.28
2022-09-07T20:01:08.394Z,101024.56
2022-09-07T20:03:35.434Z,101028.22
2022-09-07T20:06:18.956Z,101029.22
2022-09-07T20:08:45.720Z,101023.75
2022-09-07T20:11:14.466Z,101018.97
2022-09-07T20:13:41.524Z,101017.78
2022-09-07T20:16:11.291Z,101016.09
2022-09-07T20:18:38.980Z,101019.75
2022-09-07T20:21:06.982Z,101022.84
2022-09-07T20:23:34.978Z,101019.28
2022-09-07T20:26:04.193Z,101023.06
2022-09-07T20:28:31.351Z,101014.34
2022-09-07T20:30:58.072Z,101008.03
2022-09-07T20:33:24.742Z,100999.81
2022-09-07T20:35:51.568Z,101008.84
2022-09-07T20:38:20.636Z,101012.44
2022-09-07T20:40:54.358Z,101010.22
2022-09-07T20:43:21.660Z,101013.84
2022-09-07T20:45:48.262Z,101014.34
2022-09-07T20:48:15.433Z,100997.63
2022-09-07T20:50:42.278Z,101007.13
2022-09-07T20:53:08.856Z,100998.91
2022-09-07T20:55:35.980Z,101001.94
2022-09-07T20:58:03.004Z,101003.31
2022-09-07T21:00:29.642Z,101014.03
2022-09-07T21:02:56.373Z,101007.72
2022-09-07T21:05:22.875Z,101001.63
2022-09-07T21:07:49.401Z,101004.56
2022-09-07T21:10:15.984Z,101002.75
2022-09-07T21:12:42.531Z,101004.22
2022-09-07T21:15:09.838Z,100999.16
2022-09-07T21:17:36.349Z,101001.97
2022-09-07T21:20:03.030Z,100990.25
2022-09-07T21:22:30.918Z,101003.13
2022-09-07T21:24:57.402Z,101006.09
2022-09-07T21:27:24.476Z,101006.72
2022-09-07T21:29:51.124Z,101011.28
2022-09-07T21:32:17.629Z,101009.53
2022-09-07T21:34:44.060Z,101014.00
2022-09-07T21:37:10.526Z,101007.88
2022-09-07T21:39:37.016Z,101015.22
2022-09-07T21:42:04.473Z,101019.06
2022-09-07T21:44:30.906Z,101019.03
2022-09-07T21:46:57.444Z,101016.09
2022-09-07T21:49:23.972Z,101016.38
2022-09-07T21:51:50.438Z,101014.69
2022-09-07T21:54:16.904Z,101017.97
2022-09-07T21:56:46.504Z,101024.69
2022-09-07T21:59:13.536Z,101021.75
2022-09-07T22:01:40.917Z,101014.72
2022-09-07T22:04:07.484Z,101017.13
2022-09-07T22:06:34.792Z,101018.91
2022-09-07T22:09:03.170Z,101008.88
2022-09-07T22:11:30.114Z,101008.88
2022-09-07T22:13:58.755Z,101005.72
2022-09-07T22:16:25.668Z,101001.88
2022-09-07T22:18:52.538Z,101001.59
2022-09-07T22:21:24.704Z,100998.34
2022-09-07T22:23:54.353Z,100993.03
2022-09-07T22:26:22.812Z,100995.63
2022-09-07T22:28:49.652Z,100998.94
2022-09-07T22:31:19.107Z,100987.09
2022-09-07T22:33:46.633Z,100985.22
2022-09-07T22:36:17.441Z,100977.91
2022-09-07T22:38:45.407Z,100976.25
2022-09-07T22:41:20.078Z,100981.22
2022-09-07T22:43:47.156Z,100985.13
2022-09-07T22:46:14.407Z,100979.19
2022-09-07T22:48:41.390Z,100979.88
2022-09-07T22:51:08.828Z,100962.72
2022-09-07T22:53:37.259Z,100962.50
2022-09-07T22:56:08.172Z,100961.78
2022-09-07T22:58:35.227Z,100962.00
2022-09-07T23:01:02.043Z,100960.56
2022-09-07T23:03:29.494Z,100959.56
2022-09-07T23:05:57.048Z,100963.13
2022-09-07T23:08:24.546Z,100950.81
2022-09-07T23:10:51.139Z,100947.41
2022-09-07T23:13:17.718Z,100947.19
2022-09-07T23:15:44.448Z,100943.75
2022-09-07T23:18:15.796Z,100938.22
2022-09-07T23:20:42.589Z,100938.06
2022-09-07T23:23:09.675Z,100942.88
2022-09-07T23:25:39.602Z,100941.56
2022-09-07T23:28:07.373Z,100943.72
2022-09-07T23:30:35.698Z,100941.56
2022-09-07T23:33:02.960Z,100942.66
2022-09-07T23:35:29.540Z,100947.78
2022-09-07T23:37:56.109Z,100941.88
2022-09-07T23:40:23.058Z,100942.63
2022-09-07T23:42:49.588Z,100945.13
2022-09-07T23:45:16.158Z,100938.41
2022-09-07T23:47:42.633Z,100939.00
2022-09-07T23:50:09.918Z,100943.69
2022-09-07T23:52:37.320Z,100939.03
2022-09-07T23:55:04.542Z,100935.16
2022-09-07T23:57:31.506Z,100928.94
2022-09-07T23:59:58.260Z,100932.94
